Aeroporto :
LOGIN :

Iscrizione | Disclaimer

   EN    FR    IT 

 










Sommario :    VFR   VFR Marginale   IFR   IFR Intensivo   IFR Molto Intensivo
Visibilità : 
Base nubi : 
>= 8 km
>= 3000ft
5 / 8 km
1000 / 3000 ft
1500m / 5 km
500 / 1000 ft
800 / 1500m
200 / 500 ft
< 800m
< 200 ft
Simboli :   Temporali  Nebbia  Neve Forte  Precipitazioni Forti  Vento > 20 kt
SIGMETs :   Varie  Temporali  Ghiacco  Turbolenza  Onda orograficha  Ceneri Vulcaniche







- Altitudine del aeroporto : 200 ft


EBBL - Klein Brogel AB

ULTIMO METAR :
  • 212325Z AUTO VRB01KT 9999 NCD 10/02 Q1014 BLU

METARs OBSOLETI :
  • 212255Z AUTO VRB01KT 9999 NCD 12/02 Q1014 BLU
  • 212225Z AUTO VRB01KT 9999 NCD 12/02 Q1014 BLU
  • 212155Z AUTO VRB01KT 9999 NCD 13/01 Q1015 BLU
  • 212125Z AUTO 04004KT 9999 NCD 14/02 Q1015 BLU
  • 212055Z AUTO 04004KT 9999 NCD 15/02 Q1015 BLU

TAF TAF EBBL
Valido dal 21 a 19 ore il 22 a 07 ore UTC


211541Z 2119/2207 09005KT 9999 SKC
Nessun NOTAM noto per questo aeroporto.



MetMap, La meteo Aeronautica in un colpo d'occhio ! - Copyright ORBIFLY Dicembre 2007 - Disclaimer

ORBIFLY MET'MAP TEAM :

Programmazione e sviluppo : Alexandra Zaïnal
Concezione e sviluppo : Baudouin d'Aumeries
Co-Programmazione e sviluppo : Marc-Olivier Méhu
Supporto tecnico e logistico : Manuel Goepfert
Aiuto per la traduzione : Arnaldo La Scala

Contatto : metmap@orbifly.com




FONTI E CREDITI :

   NOAA